Terminal Aerodrome Forecast
Issued by NWS

Home | Current Version | Previous Version | Text Only | Print | Product List | Glossary On
Versions: 1 2 3 4 5 6 7 8 9 10 11 12 13 14 15
000
FTAK31 PAJN 290400 AAA
TAFAJN
TAF AMD
PAJN 290416Z 2904/2924 10007KT P6SM -SHRA FEW025 OVC050
      TEMPO 2904/2908 VRB05KT 6SM -SHRA BR FEW015 OVC030
     FM290800 10008KT P6SM -SHRA SCT025 OVC035=

USA.gov is the U.S. government's official web portal to all federal, state and local government web resources and services.